Terminal Aerodrome Forecast
Issued by NWS

Home | Current Version | Previous Version | Text Only | Print | Product List | Glossary Off
Versions: 1 2 3 4 5 6 7 8 9 10 11 12 13 14 15 16 17 18 19 20 21

000
FTUS43 KBIS 140521
TAFDIK
TAF
KDIK 140521Z 1406/1506 01009KT P6SM SCT025 BKN150
     FM141700 35013KT P6SM FEW008 SCT080
     FM142100 32017G25KT P6SM FEW035 FEW200
     FM150000 30008KT P6SM FEW050 FEW250
     FM150200 25006KT P6SM FEW040 FEW250=

USA.gov is the U.S. government's official web portal to all federal, state and local government web resources and services.